Forside
METAR-TAF:

METAR-TAF

Lufthavne :

Jammu, Indien

Breddekreds: 32-41-21N, længdekreds: 74-50-15E, højde: 314 m

Aktuelle vejr

Denne rapport blev lavet for 10 timer og 10 minutter siden, kl. 11:30 UTC
Vind 3 kt fra nordøst
Temperatur 14°C
Fugtighed 88%
Tryk 1016 hPa
Sigt: 6000 m
Spredte skyer i en højde af 2500 ft
Brudte skyer i en højde af 9000 ft
let regn

METAR: VIJU 101130Z 05003KT 6000 -RA SCT025 BKN090 14/12 Q1016 NOSIG

Tid: 03:10 (21:40 UTC)


TAF: fraværende

Vejrobservationer og prognoser fra mere end 4000 lufthavne (METAR og TAF).

De gule og røde prikker repræsenterer de meteorologiske stationer.

Flyt musen over at se navnet på stationen.

Så klik over at se vejr observationer og prognoser.

At skifte det kort: Klik på de grønne knapper med et sort kors for at zoome ind; på den grønne knap med en bindestreg for at zoome ud; eller på de grønne pile for tilstødende kort.


METAR-TAF: